Time;durP1;ratioP1;P1;durP2;ratioP2;P2;SDS_P1;SDS_P2;PMS_P1;PMS_P2;Temp;Humidity;BMP_temperature;BMP_pressure;BME280_temperature;BME280_humidity;BME280_pressure;Samples;Min_cycle;Max_cycle;Signal;HPM_P1;HPM_P2
2022/09/29 00:00:37;;;;;;;2.50;1.40;;;5.50;99.90;;;;;;5112212;28;20038;-81
2022/09/29 00:03:03;;;;;;;3.70;1.80;;;5.50;99.90;;;;;;5095224;28;20224;-81
2022/09/29 00:05:29;;;;;;;2.58;1.40;;;5.50;99.90;;;;;;5113286;28;20545;-81
2022/09/29 00:07:55;;;;;;;2.22;1.40;;;5.50;99.90;;;;;;5111175;28;20122;-81
2022/09/29 00:10:22;;;;;;;3.08;1.60;;;5.50;99.90;;;;;;5113251;28;20131;-81
2022/09/29 00:12:48;;;;;;;2.55;1.45;;;5.50;99.90;;;;;;5114793;28;20063;-80
2022/09/29 00:15:14;;;;;;;2.05;1.38;;;6.50;99.90;;;;;;5114190;28;20051;-79
2022/09/29 00:17:40;;;;;;;5.90;2.05;;;5.60;99.90;;;;;;5113634;28;20040;-79
2022/09/29 00:20:06;;;;;;;1.65;1.08;;;6.00;99.90;;;;;;5095656;28;20039;-79
2022/09/29 00:22:32;;;;;;;1.90;1.30;;;5.60;99.90;;;;;;5112322;28;20122;-79
2022/09/29 00:24:57;;;;;;;2.30;1.20;;;5.60;99.90;;;;;;5112711;28;20047;-79
2022/09/29 00:27:23;;;;;;;2.72;1.55;;;6.40;99.90;;;;;;5112686;28;20042;-79
2022/09/29 00:29:49;;;;;;;2.63;1.65;;;5.60;99.90;;;;;;5114617;28;20047;-81
2022/09/29 00:32:14;;;;;;;4.15;1.42;;;5.50;99.90;;;;;;5097216;28;20134;-81
2022/09/29 00:34:40;;;;;;;2.30;1.20;;;5.50;99.90;;;;;;5080840;28;20031;-81
2022/09/29 00:37:06;;;;;;;1.75;1.33;;;6.20;99.90;;;;;;5114257;28;20040;-81
2022/09/29 00:39:32;;;;;;;1.08;0.88;;;5.50;99.90;;;;;;5097342;28;20040;-81
2022/09/29 00:41:57;;;;;;;2.13;1.33;;;5.50;99.90;;;;;;5097257;28;20070;-81
2022/09/29 00:45:00;;;;;;;2.40;1.50;;;5.50;99.90;;;;;;5097560;28;20088;-81
2022/09/29 00:47:27;;;;;;;1.67;1.25;;;5.40;99.90;;;;;;5112320;28;20047;-81
2022/09/29 00:50:02;;;;;;;2.00;1.10;;;5.40;99.90;;;;;;5112656;28;20055;-81
2022/09/29 00:52:28;;;;;;;3.30;1.73;;;5.40;99.90;;;;;;5094686;28;20047;-81
2022/09/29 00:55:04;;;;;;;2.03;1.27;;;5.30;99.90;;;;;;5112511;28;20050;-81
2022/09/29 00:57:42;;;;;;;1.98;1.38;;;5.30;99.90;;;;;;5111251;28;20485;-81
2022/09/29 01:00:11;;;;;;;2.45;1.45;;;5.30;99.90;;;;;;5113743;28;20068;-81
2022/09/29 01:02:45;;;;;;;2.53;0.95;;;5.30;99.90;;;;;;5112226;28;20122;-81
2022/09/29 01:05:25;;;;;;;1.92;1.20;;;5.20;99.90;;;;;;5111310;28;20043;-81
2022/09/29 01:07:51;;;;;;;2.40;1.42;;;5.20;99.90;;;;;;5127369;27;20039;-81
2022/09/29 01:10:18;;;;;;;1.92;1.40;;;5.20;99.90;;;;;;5093197;28;20039;-81
2022/09/29 01:12:46;;;;;;;1.75;1.25;;;5.20;99.90;;;;;;5111613;28;20056;-81
2022/09/29 01:15:17;;;;;;;2.53;1.52;;;5.90;99.90;;;;;;5094504;28;20097;-81
2022/09/29 01:17:43;;;;;;;2.80;1.60;;;5.10;99.90;;;;;;5111235;28;20114;-81
2022/09/29 01:20:14;;;;;;;2.95;1.38;;;5.10;99.90;;;;;;5128913;27;20046;-81
2022/09/29 01:23:13;;;;;;;2.03;1.17;;;5.10;99.90;;;;;;5111358;28;20036;-81
2022/09/29 01:26:00;;;;;;;2.33;1.40;;;5.10;99.90;;;;;;5113039;28;20082;-81
2022/09/29 01:28:32;;;;;;;3.13;1.58;;;5.00;99.90;;;;;;5113536;28;20065;-81
2022/09/29 01:31:09;;;;;;;2.78;1.52;;;5.10;99.90;;;;;;5096352;28;20058;-82
2022/09/29 01:33:50;;;;;;;2.35;1.45;;;5.00;99.90;;;;;;5093198;28;20047;-81
2022/09/29 01:36:37;;;;;;;2.80;1.65;;;5.00;99.90;;;;;;5110520;28;20096;-81
2022/09/29 01:39:13;;;;;;;2.45;1.70;;;4.90;99.90;;;;;;5113250;28;20039;-81
2022/09/29 01:41:48;;;;;;;1.92;1.20;;;4.90;99.90;;;;;;5113383;28;20039;-81
2022/09/29 01:44:17;;;;;;;2.97;1.90;;;4.90;99.90;;;;;;5113252;28;20126;-81
2022/09/29 01:46:49;;;;;;;2.25;1.30;;;5.70;99.90;;;;;;5112924;28;20074;-81
2022/09/29 01:49:17;;;;;;;4.07;1.58;;;4.90;99.90;;;;;;5111850;28;20043;-81
2022/09/29 01:51:55;;;;;;;2.60;1.50;;;4.90;99.90;;;;;;5113032;28;20404;-81
2022/09/29 01:54:42;;;;;;;4.45;1.90;;;4.90;99.90;;;;;;5112963;28;20447;-79
2022/09/29 01:57:22;;;;;;;2.80;1.60;;;4.80;99.90;;;;;;5112751;28;20497;-79
2022/09/29 02:00:08;;;;;;;3.03;1.67;;;4.80;99.90;;;;;;5112907;28;20040;-79
2022/09/29 02:02:49;;;;;;;2.63;1.65;;;4.80;99.90;;;;;;5111418;28;20040;-79
2022/09/29 02:05:53;;;;;;;2.95;1.60;;;4.80;99.90;;;;;;5111401;28;20050;-79
2022/09/29 02:08:40;;;;;;;3.05;1.60;;;4.70;99.90;;;;;;5087339;28;20094;-79
2022/09/29 02:11:11;;;;;;;2.10;1.50;;;4.70;99.90;;;;;;5100230;28;20039;-80
2022/09/29 02:13:51;;;;;;;3.17;1.48;;;4.70;99.90;;;;;;5093631;28;20059;-80
2022/09/29 02:16:22;;;;;;;3.22;1.58;;;4.70;99.90;;;;;;5110488;28;20055;-80
2022/09/29 02:18:53;;;;;;;1.50;1.20;;;4.70;99.90;;;;;;5110442;28;20036;-80
2022/09/29 02:21:21;;;;;;;2.03;1.38;;;4.70;99.90;;;;;;5093941;28;20552;-81
2022/09/29 02:23:47;;;;;;;2.45;1.40;;;5.40;99.90;;;;;;5095176;28;20035;-80
2022/09/29 02:26:13;;;;;;;1.40;1.30;;;4.60;99.90;;;;;;5112643;28;20495;-80
2022/09/29 02:28:41;;;;;;;2.22;1.52;;;5.00;99.90;;;;;;5095446;28;20039;-80
2022/09/29 02:31:07;;;;;;;2.33;1.38;;;4.60;99.90;;;;;;5111352;28;20485;-81
2022/09/29 02:33:33;;;;;;;2.85;1.85;;;4.50;99.90;;;;;;5111323;28;20430;-80
2022/09/29 02:36:04;;;;;;;2.70;1.52;;;4.60;99.90;;;;;;5092289;28;20123;-80
2022/09/29 02:38:39;;;;;;;3.58;1.92;;;4.60;99.90;;;;;;5096017;28;20063;-80
2022/09/29 02:41:29;;;;;;;2.90;1.90;;;4.60;99.90;;;;;;5094674;28;20066;-80
2022/09/29 02:44:33;;;;;;;4.93;1.80;;;4.60;99.90;;;;;;5110738;28;20078;-80
2022/09/29 02:47:25;;;;;;;2.85;1.73;;;4.60;99.90;;;;;;5078995;28;20601;-81
2022/09/29 02:50:00;;;;;;;4.90;2.50;;;4.50;99.90;;;;;;5110299;28;20043;-81
2022/09/29 02:52:33;;;;;;;3.38;1.83;;;4.50;99.90;;;;;;5110455;28;20043;-81
2022/09/29 02:55:19;;;;;;;3.47;1.83;;;4.50;99.90;;;;;;5094497;28;20039;-81
2022/09/29 02:57:52;;;;;;;2.13;1.70;;;4.70;99.90;;;;;;5094839;28;20056;-81
2022/09/29 03:00:19;;;;;;;2.67;1.67;;;5.70;99.90;;;;;;5095618;28;20507;-79
2022/09/29 03:02:44;;;;;;;2.85;1.75;;;4.40;99.90;;;;;;5112179;28;20561;-79
2022/09/29 03:05:16;;;;;;;1.70;1.50;;;4.40;99.90;;;;;;5112357;28;20043;-79
2022/09/29 03:07:42;;;;;;;4.03;1.73;;;4.40;99.90;;;;;;5110139;28;20385;-79
2022/09/29 03:10:10;;;;;;;3.45;2.13;;;4.40;99.90;;;;;;5108716;28;20048;-78
2022/09/29 03:12:35;;;;;;;3.10;1.95;;;4.30;99.90;;;;;;5109448;28;20048;-79
2022/09/29 03:15:02;;;;;;;3.45;1.92;;;4.30;99.90;;;;;;5110129;28;20121;-79
2022/09/29 03:17:27;;;;;;;2.65;1.75;;;4.40;99.90;;;;;;5127139;28;20123;-79
2022/09/29 03:19:53;;;;;;;3.17;1.80;;;4.30;99.90;;;;;;5092311;28;20151;-79
2022/09/29 03:22:19;;;;;;;3.38;1.85;;;4.30;99.90;;;;;;5108822;28;20031;-80
2022/09/29 03:24:44;;;;;;;2.63;1.50;;;4.30;99.90;;;;;;5111299;28;20039;-80
2022/09/29 03:27:10;;;;;;;3.20;1.80;;;4.30;99.90;;;;;;5092816;28;20489;-80
2022/09/29 03:29:36;;;;;;;1.77;1.40;;;4.20;99.90;;;;;;5092622;28;20070;-80
2022/09/29 03:32:03;;;;;;;2.17;1.70;;;4.20;99.90;;;;;;5089903;28;20440;-80
2022/09/29 03:34:29;;;;;;;2.67;1.70;;;4.20;99.90;;;;;;5089543;28;20409;-80
2022/09/29 03:36:55;;;;;;;2.67;1.73;;;4.20;99.90;;;;;;5089474;28;20032;-80
2022/09/29 03:39:21;;;;;;;3.47;2.15;;;4.20;99.90;;;;;;5090086;28;20040;-81
2022/09/29 03:41:46;;;;;;;2.95;1.83;;;4.10;99.90;;;;;;5100403;28;20393;-80
2022/09/29 03:44:12;;;;;;;3.45;2.15;;;4.90;99.90;;;;;;5097475;28;20044;-80
2022/09/29 03:46:38;;;;;;;2.40;1.40;;;4.10;99.90;;;;;;5115295;28;20101;-80
2022/09/29 03:49:03;;;;;;;2.50;1.80;;;4.10;99.90;;;;;;5113821;28;20040;-80
2022/09/29 03:51:29;;;;;;;2.20;1.30;;;4.10;99.90;;;;;;5113735;28;20520;-80
2022/09/29 03:53:55;;;;;;;2.78;1.65;;;4.10;99.90;;;;;;5112850;28;20070;-81
2022/09/29 03:56:21;;;;;;;2.22;1.55;;;4.10;99.90;;;;;;5113371;28;20036;-80
2022/09/29 03:58:46;;;;;;;3.40;1.90;;;4.10;99.90;;;;;;5113345;28;20040;-81
2022/09/29 04:01:12;;;;;;;2.28;1.52;;;4.10;99.90;;;;;;5112915;28;20047;-81
2022/09/29 04:03:38;;;;;;;4.15;1.77;;;4.60;99.90;;;;;;5112248;28;20075;-80
2022/09/29 04:06:03;;;;;;;2.75;1.73;;;4.00;99.90;;;;;;5113908;28;20104;-80
2022/09/29 04:08:29;;;;;;;3.03;2.15;;;4.00;99.90;;;;;;5113763;28;20090;-80
2022/09/29 04:10:55;;;;;;;2.90;1.75;;;4.50;99.90;;;;;;5114949;28;20058;-80
2022/09/29 04:13:20;;;;;;;3.45;1.95;;;4.00;99.90;;;;;;5061329;28;20052;-80
2022/09/29 04:15:49;;;;;;;3.05;1.85;;;4.00;99.90;;;;;;5114315;28;20081;-80
2022/09/29 04:18:15;;;;;;;2.78;1.98;;;4.80;99.90;;;;;;5112928;28;20046;-80
2022/09/29 04:20:41;;;;;;;3.17;2.17;;;4.00;99.90;;;;;;5095934;28;20460;-80
2022/09/29 04:23:07;;;;;;;3.20;1.92;;;4.30;99.90;;;;;;5111921;28;20131;-81
2022/09/29 04:25:32;;;;;;;3.25;1.83;;;5.10;99.90;;;;;;5112934;28;20043;-80
2022/09/29 04:27:59;;;;;;;3.03;1.80;;;3.90;99.90;;;;;;5095241;28;20519;-81
2022/09/29 04:30:24;;;;;;;3.28;1.60;;;3.90;99.90;;;;;;5095532;28;20035;-80
2022/09/29 04:32:50;;;;;;;3.78;1.85;;;4.50;99.90;;;;;;5114407;28;20431;-80
2022/09/29 04:35:16;;;;;;;3.80;2.20;;;3.90;99.90;;;;;;5097680;28;20124;-80
2022/09/29 04:37:42;;;;;;;6.00;2.22;;;3.90;99.90;;;;;;5131535;27;20043;-80
2022/09/29 04:40:08;;;;;;;3.22;1.92;;;4.40;99.90;;;;;;5097727;28;20381;-80
2022/09/29 04:42:34;;;;;;;3.50;2.03;;;3.90;99.90;;;;;;5114541;28;20043;-81
2022/09/29 04:45:00;;;;;;;4.03;2.25;;;4.00;99.90;;;;;;5113951;28;20053;-80
2022/09/29 04:47:25;;;;;;;5.25;2.50;;;4.00;99.90;;;;;;5114128;28;20514;-81
2022/09/29 04:49:51;;;;;;;5.05;2.80;;;4.00;99.90;;;;;;5096953;28;20127;-80
2022/09/29 04:52:17;;;;;;;4.07;2.50;;;4.00;99.90;;;;;;5114544;28;20119;-80
2022/09/29 04:54:42;;;;;;;3.47;2.30;;;4.00;99.90;;;;;;5113661;28;20470;-80
2022/09/29 04:57:09;;;;;;;3.60;2.60;;;4.00;99.90;;;;;;5114319;28;20061;-79
2022/09/29 04:59:35;;;;;;;4.75;2.33;;;4.90;99.90;;;;;;5114351;28;20050;-79
2022/09/29 05:02:00;;;;;;;4.88;2.40;;;4.00;99.90;;;;;;5114165;28;20405;-79
2022/09/29 05:04:26;;;;;;;3.33;2.13;;;4.50;99.90;;;;;;5095406;28;20122;-79
2022/09/29 05:06:52;;;;;;;3.60;2.28;;;4.00;99.90;;;;;;5095528;28;20481;-79
2022/09/29 05:09:17;;;;;;;3.85;2.25;;;4.00;99.90;;;;;;5111424;28;20044;-79
2022/09/29 05:11:43;;;;;;;2.65;1.85;;;4.10;99.90;;;;;;5111636;28;20047;-79
2022/09/29 05:14:09;;;;;;;5.13;2.28;;;3.90;99.90;;;;;;5078044;28;20073;-79
2022/09/29 05:16:35;;;;;;;4.40;2.10;;;3.90;99.90;;;;;;5111765;28;20062;-79
2022/09/29 05:19:01;;;;;;;3.17;1.98;;;4.00;99.90;;;;;;5111279;28;20501;-79
2022/09/29 05:21:27;;;;;;;5.20;2.78;;;3.90;99.90;;;;;;5112574;28;20039;-79
2022/09/29 05:23:53;;;;;;;4.55;2.80;;;3.90;99.90;;;;;;5096603;28;20028;-79
2022/09/29 05:26:19;;;;;;;3.70;2.40;;;4.20;99.90;;;;;;5113105;28;20036;-79
2022/09/29 05:28:46;;;;;;;4.55;2.55;;;3.90;99.90;;;;;;5114313;28;20120;-79
2022/09/29 05:31:12;;;;;;;4.43;2.72;;;3.90;99.90;;;;;;5095075;28;20499;-81
2022/09/29 05:33:38;;;;;;;4.53;2.30;;;5.10;99.90;;;;;;5112975;28;20043;-81
2022/09/29 05:36:06;;;;;;;4.47;2.33;;;4.60;99.90;;;;;;5094662;28;20432;-80
2022/09/29 05:38:34;;;;;;;4.40;2.30;;;3.90;99.90;;;;;;5112919;28;20046;-81
2022/09/29 05:41:07;;;;;;;3.08;2.10;;;3.90;99.90;;;;;;5093643;28;20059;-81
2022/09/29 05:43:33;;;;;;;3.85;2.28;;;3.90;99.90;;;;;;5111783;28;20084;-82
2022/09/29 05:46:01;;;;;;;3.35;1.98;;;3.90;99.90;;;;;;5112822;28;20044;-81
2022/09/29 05:48:29;;;;;;;3.70;2.25;;;4.00;99.90;;;;;;5110764;28;20096;-81
2022/09/29 05:50:55;;;;;;;4.63;2.70;;;4.00;99.90;;;;;;5111119;28;20048;-80
2022/09/29 05:53:21;;;;;;;3.58;2.22;;;4.00;99.90;;;;;;5094422;28;20088;-81
2022/09/29 05:55:47;;;;;;;4.45;2.80;;;4.10;99.90;;;;;;5093403;28;20477;-81
2022/09/29 05:58:12;;;;;;;4.53;2.53;;;4.10;99.90;;;;;;5110698;28;20042;-81
2022/09/29 06:00:39;;;;;;;4.78;2.67;;;4.20;99.90;;;;;;5093773;28;20092;-81
2022/09/29 06:03:04;;;;;;;5.68;2.45;;;4.30;99.90;;;;;;5112491;28;20042;-80
2022/09/29 06:05:30;;;;;;;5.30;2.78;;;4.30;99.90;;;;;;5091289;28;20123;-80
2022/09/29 06:07:56;;;;;;;5.45;2.83;;;4.40;99.90;;;;;;5090933;28;20047;-80
2022/09/29 06:10:22;;;;;;;4.90;2.63;;;4.40;99.90;;;;;;5112572;28;20062;-80
2022/09/29 06:12:47;;;;;;;5.85;3.20;;;4.60;99.90;;;;;;5110461;28;20472;-80
2022/09/29 06:15:13;;;;;;;5.00;2.90;;;4.70;99.90;;;;;;5112197;28;20040;-80
2022/09/29 06:17:39;;;;;;;5.47;3.38;;;4.80;99.90;;;;;;5110622;28;20066;-80
2022/09/29 06:20:06;;;;;;;4.43;3.10;;;5.20;99.90;;;;;;5093720;28;20032;-80
2022/09/29 06:22:32;;;;;;;6.18;3.47;;;5.30;99.90;;;;;;5110108;28;20495;-80
2022/09/29 06:24:58;;;;;;;4.57;3.13;;;6.00;99.90;;;;;;5111772;28;20101;-80
2022/09/29 06:27:25;;;;;;;5.10;3.03;;;5.80;99.90;;;;;;5109818;28;20662;-80
2022/09/29 06:29:51;;;;;;;4.88;3.20;;;6.10;99.90;;;;;;5091559;28;20052;-80
2022/09/29 06:32:16;;;;;;;5.65;3.88;;;6.10;99.90;;;;;;5090289;28;20048;-80
2022/09/29 06:37:38;;;;;;;4.90;3.50;;;6.30;99.90;;;;;;5096789;28;20036;-81
2022/09/29 06:40:07;;;;;;;6.13;4.05;;;6.30;99.90;;;;;;5095374;28;20031;-81
2022/09/29 06:42:33;;;;;;;6.18;3.95;;;6.50;99.90;;;;;;5108629;28;20104;-81
2022/09/29 06:44:59;;;;;;;5.18;2.97;;;7.60;99.90;;;;;;5110957;28;20081;-81
2022/09/29 06:47:25;;;;;;;6.25;4.05;;;7.50;99.90;;;;;;5098014;28;20774;-81
2022/09/29 06:49:50;;;;;;;7.15;4.43;;;8.40;99.90;;;;;;5110268;28;20054;-81
2022/09/29 06:52:18;;;;;;;8.18;5.28;;;9.20;99.90;;;;;;5110708;28;20127;-81
2022/09/29 06:54:47;;;;;;;6.85;4.25;;;9.80;99.90;;;;;;5110350;28;20036;-80
2022/09/29 06:57:17;;;;;;;7.93;4.72;;;10.60;99.90;;;;;;5076992;28;20262;-80
2022/09/29 06:59:49;;;;;;;7.90;4.43;;;11.40;99.90;;;;;;5102554;28;20034;-80
2022/09/29 07:02:15;;;;;;;7.95;4.97;;;12.30;99.90;;;;;;5077432;28;20043;-81
2022/09/29 07:04:41;;;;;;;8.98;4.32;;;12.50;99.90;;;;;;5111802;28;20039;-80
2022/09/29 07:07:07;;;;;;;10.40;5.38;;;13.30;99.90;;;;;;5111863;28;20492;-80
2022/09/29 07:09:33;;;;;;;6.93;4.05;;;14.00;99.90;;;;;;5111624;28;20055;-80
2022/09/29 07:11:59;;;;;;;6.82;4.28;;;14.80;99.90;;;;;;5091874;28;20063;-81
2022/09/29 07:14:25;;;;;;;7.80;4.93;;;15.30;99.90;;;;;;5092700;28;20055;-81
2022/09/29 07:16:52;;;;;;;6.65;3.95;;;16.10;99.90;;;;;;5094523;28;20474;-81
2022/09/29 07:19:18;;;;;;;7.88;3.83;;;16.70;99.90;;;;;;5114716;28;20524;-80
2022/09/29 07:21:45;;;;;;;6.68;3.25;;;17.20;99.90;;;;;;5114927;28;20355;-80
2022/09/29 07:24:11;;;;;;;6.90;4.10;;;17.90;99.90;;;;;;5114737;28;20047;-81
2022/09/29 07:26:40;;;;;;;7.43;3.40;;;18.70;99.90;;;;;;5121085;22;20052;-82
2022/09/29 07:29:07;;;;;;;5.85;3.58;;;19.30;99.90;;;;;;5079443;28;20047;-82
2022/09/29 07:31:33;;;;;;;5.97;3.25;;;19.90;99.00;;;;;;5079004;28;20398;-82
2022/09/29 07:34:04;;;;;;;6.45;3.38;;;20.50;97.20;;;;;;5049328;28;20044;-82
2022/09/29 07:36:30;;;;;;;6.80;3.15;;;20.90;97.00;;;;;;5061740;28;20060;-83
2022/09/29 07:38:56;;;;;;;6.10;3.20;;;21.70;96.10;;;;;;5043357;28;20040;-82
2022/09/29 07:41:23;;;;;;;7.15;3.13;;;22.30;94.60;;;;;;5078735;28;20079;-82
2022/09/29 07:43:49;;;;;;;4.63;2.63;;;22.80;93.80;;;;;;5046442;28;20554;-82
2022/09/29 07:46:15;;;;;;;8.07;4.07;;;23.10;93.10;;;;;;5062710;28;20044;-82
2022/09/29 07:48:42;;;;;;;5.43;2.92;;;23.30;91.80;;;;;;5090053;28;20055;-82
2022/09/29 07:51:14;;;;;;;7.25;3.72;;;23.70;91.30;;;;;;5083892;28;20036;-82
2022/09/29 07:53:40;;;;;;;4.53;3.10;;;23.90;90.70;;;;;;5075193;28;20046;-82
2022/09/29 07:56:10;;;;;;;4.55;2.30;;;24.10;91.50;;;;;;5072819;28;20058;-82
2022/09/29 07:58:36;;;;;;;5.63;3.25;;;24.60;90.90;;;;;;5085712;28;20093;-82
2022/09/29 08:01:05;;;;;;;5.47;3.17;;;24.80;89.00;;;;;;5076321;28;20040;-81
2022/09/29 08:03:32;;;;;;;6.38;3.65;;;25.00;90.00;;;;;;5076116;28;20068;-82
2022/09/29 08:05:58;;;;;;;5.15;3.17;;;25.20;86.00;;;;;;5061916;28;20440;-82
2022/09/29 08:08:24;;;;;;;8.43;3.63;;;25.30;86.80;;;;;;5056218;28;20032;-82
2022/09/29 08:10:50;;;;;;;6.75;3.50;;;25.20;85.60;;;;;;5075709;28;20055;-82
2022/09/29 08:13:16;;;;;;;7.20;3.20;;;25.40;87.70;;;;;;5072206;28;20059;-82
2022/09/29 08:15:42;;;;;;;9.20;3.63;;;25.80;86.20;;;;;;5076946;28;20044;-82
2022/09/29 08:18:08;;;;;;;4.70;2.78;;;26.20;85.30;;;;;;5076801;28;20048;-80
2022/09/29 08:20:35;;;;;;;6.72;3.22;;;26.20;84.90;;;;;;5042442;28;20029;-81
2022/09/29 08:23:01;;;;;;;4.00;2.40;;;26.10;82.60;;;;;;5075589;28;20039;-80
2022/09/29 08:25:26;;;;;;;5.40;3.50;;;26.20;85.90;;;;;;5058180;28;20044;-80
2022/09/29 08:27:52;;;;;;;4.85;2.75;;;26.50;84.30;;;;;;5057014;28;20056;-81
2022/09/29 08:30:18;;;;;;;4.40;2.58;;;26.60;84.90;;;;;;5074900;28;20070;-80
2022/09/29 08:32:51;;;;;;;5.45;2.90;;;27.20;84.10;;;;;;5058386;28;20036;-80
2022/09/29 08:35:16;;;;;;;5.55;3.25;;;27.20;83.30;;;;;;5075552;28;20047;-79
2022/09/29 08:37:42;;;;;;;4.20;2.40;;;27.10;79.70;;;;;;5055368;28;20475;-79
2022/09/29 08:40:08;;;;;;;5.57;3.00;;;27.10;82.30;;;;;;5065122;28;20131;-79
2022/09/29 08:42:52;;;;;;;4.45;2.47;;;26.90;84.60;;;;;;5060629;28;20036;-79
2022/09/29 08:45:32;;;;;;;5.03;3.10;;;27.30;82.80;;;;;;5077650;28;20035;-79
2022/09/29 08:48:07;;;;;;;6.13;3.15;;;27.00;81.90;;;;;;5060094;28;20047;-78
2022/09/29 08:50:40;;;;;;;;;;;27.00;82.50;;;;;;5057134;28;20037;-78
2022/09/29 08:53:12;;;;;;;4.00;2.33;;;27.30;80.60;;;;;;5055327;28;20003;-79
2022/09/29 08:55:49;;;;;;;3.55;2.25;;;27.80;81.60;;;;;;5039774;28;20063;-79
2022/09/29 08:58:16;;;;;;;5.53;2.53;;;28.00;80.50;;;;;;5073681;28;20047;-80
2022/09/29 09:00:51;;;;;;;4.53;2.75;;;28.00;80.80;;;;;;5040797;28;20047;-79
2022/09/29 09:03:34;;;;;;;3.95;2.28;;;28.50;79.50;;;;;;5076995;28;20462;-80
2022/09/29 09:06:37;;;;;;;4.68;2.30;;;28.80;78.50;;;;;;5060425;28;20397;-80
2022/09/29 09:09:46;;;;;;;4.18;2.35;;;29.00;79.00;;;;;;5060232;28;20047;-80
2022/09/29 09:12:44;;;;;;;3.97;2.40;;;28.60;77.60;;;;;;5067721;28;20048;-80
2022/09/29 09:15:31;;;;;;;3.67;2.10;;;28.40;76.90;;;;;;5066328;28;20047;-79
2022/09/29 09:18:03;;;;;;;4.82;2.40;;;27.90;75.70;;;;;;5058303;28;20043;-80
2022/09/29 09:20:35;;;;;;;4.65;2.40;;;27.30;75.00;;;;;;5075087;28;20040;-80
2022/09/29 09:23:19;;;;;;;3.70;2.20;;;27.00;76.30;;;;;;5066360;28;20047;-80
2022/09/29 09:26:17;;;;;;;4.22;2.38;;;26.50;79.30;;;;;;5054976;28;20393;-79
2022/09/29 09:28:56;;;;;;;3.58;2.08;;;25.90;78.10;;;;;;5028757;28;20048;-79
2022/09/29 09:31:51;;;;;;;2.75;1.95;;;25.60;80.50;;;;;;5035116;28;20506;-79
2022/09/29 09:34:28;;;;;;;2.90;1.50;;;26.00;81.40;;;;;;5041834;28;20059;-79
2022/09/29 09:36:57;;;;;;;3.50;1.88;;;27.60;78.60;;;;;;5053746;28;20072;-79
2022/09/29 09:39:33;;;;;;;3.10;2.03;;;27.70;78.00;;;;;;5053595;28;20099;-80
2022/09/29 09:42:02;;;;;;;3.63;2.08;;;28.00;77.80;;;;;;5052487;28;20033;-81
2022/09/29 09:44:53;;;;;;;2.05;1.55;;;;;;;;;;5042909;28;20053;-81
2022/09/29 09:47:26;;;;;;;4.47;1.95;;;28.40;74.50;;;;;;5017157;28;20045;-81
2022/09/29 09:49:58;;;;;;;3.45;1.70;;;28.30;74.50;;;;;;5034731;28;20041;-81
2022/09/29 09:52:42;;;;;;;2.95;1.50;;;27.90;76.20;;;;;;5052394;28;20387;-80
2022/09/29 09:55:16;;;;;;;3.47;1.60;;;28.30;75.60;;;;;;5044905;28;20561;-80
2022/09/29 09:57:44;;;;;;;3.13;1.70;;;28.00;75.30;;;;;;5053055;28;20048;-80
2022/09/29 10:00:14;;;;;;;1.98;1.42;;;28.40;76.00;;;;;;5036435;28;20068;-80
2022/09/29 10:02:46;;;;;;;3.00;1.80;;;28.60;74.20;;;;;;5053175;28;20158;-80
2022/09/29 10:05:23;;;;;;;2.97;1.85;;;;;;;;;;5045459;28;20032;-80
2022/09/29 10:07:50;;;;;;;1.95;1.30;;;30.00;73.80;;;;;;5033364;28;20032;-80
2022/09/29 10:10:20;;;;;;;2.17;1.33;;;30.30;70.30;;;;;;5045137;28;20041;-80
2022/09/29 10:13:01;;;;;;;1.92;1.25;;;30.30;72.60;;;;;;5042881;28;20045;-80
2022/09/29 10:15:53;;;;;;;2.60;1.50;;;30.40;70.80;;;;;;5044582;28;20095;-80
2022/09/29 10:18:41;;;;;;;2.20;1.52;;;30.30;70.20;;;;;;5049723;28;20037;-80
2022/09/29 10:21:27;;;;;;;2.70;1.77;;;29.90;69.60;;;;;;5050639;28;20045;-80
2022/09/29 10:23:55;;;;;;;1.98;1.30;;;29.00;72.70;;;;;;5051290;28;20051;-80
2022/09/29 10:26:41;;;;;;;1.67;1.00;;;28.80;71.80;;;;;;5043082;28;20140;-79
2022/09/29 10:29:39;;;;;;;1.65;1.10;;;28.60;69.10;;;;;;5098614;28;20048;-79
2022/09/29 10:32:11;;;;;;;3.20;1.60;;;28.50;71.20;;;;;;5042061;28;20032;-80
2022/09/29 10:34:38;;;;;;;2.15;1.20;;;;;;;;;;5058071;28;20128;-80
2022/09/29 10:37:19;;;;;;;1.65;0.98;;;28.40;72.70;;;;;;5058231;28;20036;-80
2022/09/29 10:39:47;;;;;;;3.88;1.48;;;27.80;71.60;;;;;;5076137;28;20044;-80
2022/09/29 10:42:20;;;;;;;2.50;1.50;;;27.80;74.40;;;;;;5076066;28;20071;-80
2022/09/29 10:44:59;;;;;;;1.95;1.20;;;27.30;73.40;;;;;;5067361;28;20123;-80
2022/09/29 10:47:25;;;;;;;1.10;0.93;;;28.00;71.50;;;;;;5055992;28;20109;-79
2022/09/29 10:50:12;;;;;;;1.00;0.80;;;28.10;73.70;;;;;;5073965;28;20479;-78
2022/09/29 10:52:48;;;;;;;1.15;0.70;;;28.80;71.70;;;;;;5077123;28;20458;-79
2022/09/29 10:55:22;;;;;;;0.90;0.70;;;28.90;70.40;;;;;;5079912;28;20508;-78
2022/09/29 10:57:50;;;;;;;2.92;1.00;;;29.00;70.40;;;;;;5064764;28;20395;-80
2022/09/29 11:00:27;;;;;;;1.20;0.88;;;29.10;70.30;;;;;;5068568;28;20047;-79
2022/09/29 11:03:14;;;;;;;1.02;0.88;;;29.40;68.90;;;;;;5061842;28;20125;-80
2022/09/29 11:06:05;;;;;;;0.93;0.60;;;29.40;68.70;;;;;;5073886;28;20052;-80
2022/09/29 11:08:31;;;;;;;1.48;0.77;;;29.00;67.30;;;;;;5071224;28;20043;-80
2022/09/29 11:11:20;;;;;;;1.23;0.68;;;28.40;71.00;;;;;;5059454;28;20458;-80
2022/09/29 11:13:46;;;;;;;1.52;0.57;;;28.80;69.50;;;;;;5058270;28;20127;-80
2022/09/29 11:16:15;;;;;;;0.95;0.70;;;28.60;67.90;;;;;;5041638;28;20124;-80
2022/09/29 11:18:44;;;;;;;1.08;0.68;;;28.70;70.80;;;;;;5058830;28;20059;-80
2022/09/29 11:21:18;;;;;;;2.83;0.80;;;28.60;71.50;;;;;;5091750;28;20048;-80
2022/09/29 11:23:57;;;;;;;1.73;1.00;;;28.70;68.60;;;;;;5058091;28;20039;-80
2022/09/29 11:26:33;;;;;;;0.57;0.55;;;28.30;69.60;;;;;;5091688;28;20328;-79
2022/09/29 11:29:15;;;;;;;1.73;1.05;;;28.10;69.30;;;;;;5060862;28;20072;-79
2022/09/29 11:32:08;;;;;;;0.50;0.50;;;28.30;69.10;;;;;;5059107;28;20491;-79
2022/09/29 11:35:12;;;;;;;1.27;0.82;;;28.60;72.20;;;;;;5092356;28;20482;-80
2022/09/29 11:38:12;;;;;;;1.42;0.60;;;28.30;71.20;;;;;;5075456;28;20036;-80
2022/09/29 11:41:15;;;;;;;1.00;0.77;;;28.80;69.30;;;;;;5072782;28;20040;-80
2022/09/29 11:43:53;;;;;;;0.70;0.50;;;28.50;69.10;;;;;;5076188;28;20516;-80
2022/09/29 11:46:38;;;;;;;0.75;0.52;;;28.40;68.80;;;;;;5076160;28;20040;-80
2022/09/29 11:49:22;;;;;;;0.98;0.65;;;28.10;69.80;;;;;;5060060;28;20048;-80
2022/09/29 11:52:00;;;;;;;3.78;0.55;;;27.60;71.20;;;;;;5058249;28;20429;-80
2022/09/29 11:54:36;;;;;;;0.55;0.43;;;27.30;72.30;;;;;;5041508;28;20079;-78
2022/09/29 11:57:22;;;;;;;0.40;0.40;;;27.60;70.60;;;;;;5061530;28;20044;-78
2022/09/29 12:00:10;;;;;;;0.70;0.63;;;26.90;67.30;;;;;;5032748;28;20047;-78
2022/09/29 12:02:58;;;;;;;0.30;0.30;;;25.30;70.30;;;;;;5077442;28;20040;-78
2022/09/29 12:05:42;;;;;;;0.40;0.40;;;25.00;70.70;;;;;;5075204;28;20436;-78
2022/09/29 12:08:23;;;;;;;0.30;0.28;;;24.90;71.20;;;;;;5076032;28;20512;-78
2022/09/29 12:11:24;;;;;;;0.43;0.30;;;25.30;70.70;;;;;;5060379;28;20188;-78
2022/09/29 12:13:59;;;;;;;0.30;0.25;;;25.00;69.10;;;;;;4995088;28;20045;-78
2022/09/29 12:16:31;;;;;;;0.30;0.20;;;24.70;67.90;;;;;;5047176;28;20079;-78
2022/09/29 12:19:16;;;;;;;0.77;0.57;;;24.20;70.20;;;;;;5039627;28;20048;-78
2022/09/29 12:21:47;;;;;;;0.43;0.43;;;23.60;71.00;;;;;;5042110;28;20123;-77
2022/09/29 12:24:38;;;;;;;1.45;0.60;;;23.10;72.10;;;;;;5057765;28;20039;-80
2022/09/29 12:27:38;;;;;;;0.90;0.75;;;22.60;74.40;;;;;;5053527;28;20053;-81
2022/09/29 12:30:14;;;;;;;0.82;0.57;;;22.30;75.00;;;;;;5057050;28;20049;-81
2022/09/29 12:32:56;;;;;;;1.05;0.55;;;21.90;75.80;;;;;;5057746;28;20040;-81
2022/09/29 12:35:33;;;;;;;1.02;0.68;;;21.50;77.80;;;;;;5057148;28;20043;-81
2022/09/29 12:38:25;;;;;;;1.50;0.43;;;21.10;78.60;;;;;;5108052;28;20528;-81
2022/09/29 12:40:53;;;;;;;0.75;0.55;;;20.70;77.40;;;;;;5067722;28;20033;-81
2022/09/29 12:43:22;;;;;;;0.73;0.73;;;20.10;79.50;;;;;;5064548;28;20036;-82
2022/09/29 12:46:21;;;;;;;3.20;1.27;;;19.80;82.20;;;;;;5073867;28;20044;-82
2022/09/29 12:49:28;;;;;;;2.47;1.13;;;19.40;83.30;;;;;;5073813;28;20437;-82
2022/09/29 12:51:56;;;;;;;1.88;0.50;;;19.00;84.20;;;;;;4976647;28;20038;-81
2022/09/29 12:54:27;;;;;;;2.42;1.15;;;18.80;87.00;;;;;;5037538;28;20044;-81
2022/09/29 12:57:13;;;;;;;1.60;0.93;;;18.60;86.30;;;;;;5052141;28;20548;-81
2022/09/29 12:59:42;;;;;;;;;;;18.40;87.40;;;;;;5074127;28;20040;-81
2022/09/29 13:02:28;;;;;;;0.73;0.50;;;18.10;87.90;;;;;;5085572;28;19920;-80
2022/09/29 13:05:15;;;;;;;1.25;0.52;;;17.90;89.30;;;;;;5003120;28;20429;-80
2022/09/29 13:08:04;;;;;;;1.80;0.88;;;17.70;90.40;;;;;;5052908;28;20080;-80
2022/09/29 13:10:48;;;;;;;0.38;0.28;;;17.50;90.90;;;;;;5052626;28;20041;-80
2022/09/29 13:13:45;;;;;;;1.15;0.65;;;17.30;91.20;;;;;;5052616;28;20047;-80
2022/09/29 13:16:23;;;;;;;0.43;0.43;;;17.10;92.10;;;;;;5051334;28;20147;-80
2022/09/29 13:19:00;;;;;;;0.32;0.32;;;17.00;92.80;;;;;;5051631;28;20079;-81
2022/09/29 13:21:50;;;;;;;0.82;0.50;;;16.90;93.20;;;;;;5051533;28;20041;-81
2022/09/29 13:24:25;;;;;;;1.70;0.60;;;16.90;93.70;;;;;;5061207;28;20049;-81